sensor_id;sensor_type;location;lat;lon;timestamp;pressure;altitude;pressure_sealevel;temperature;humidity
59531;BME280;45349;48.692;8.186;2023-03-21T00:00:53;98929.84;;;7.87;97.03
59531;BME280;45349;48.692;8.186;2023-03-21T00:03:20;98927.84;;;7.90;97.75
59531;BME280;45349;48.692;8.186;2023-03-21T00:05:48;98927.84;;;7.90;98.29
59531;BME280;45349;48.692;8.186;2023-03-21T00:08:18;98921.09;;;7.88;98.36
59531;BME280;45349;48.692;8.186;2023-03-21T00:10:45;98918.84;;;7.94;96.96
59531;BME280;45349;48.692;8.186;2023-03-21T00:13:12;98920.59;;;7.94;98.32
59531;BME280;45349;48.692;8.186;2023-03-21T00:15:39;98914.59;;;7.93;98.62
59531;BME280;45349;48.692;8.186;2023-03-21T00:18:14;98916.59;;;7.90;98.64
59531;BME280;45349;48.692;8.186;2023-03-21T00:20:41;98914.00;;;7.90;98.69
59531;BME280;45349;48.692;8.186;2023-03-21T00:23:13;98919.34;;;7.88;98.87
59531;BME280;45349;48.692;8.186;2023-03-21T00:25:40;98918.50;;;7.88;99.54
59531;BME280;45349;48.692;8.186;2023-03-21T00:28:06;98915.47;;;7.82;100.00
59531;BME280;45349;48.692;8.186;2023-03-21T00:30:33;98922.25;;;7.74;100.00
59531;BME280;45349;48.692;8.186;2023-03-21T00:32:59;98920.00;;;7.69;100.00
59531;BME280;45349;48.692;8.186;2023-03-21T00:35:26;98923.00;;;7.64;99.49
59531;BME280;45349;48.692;8.186;2023-03-21T00:37:53;98911.31;;;7.59;99.53
59531;BME280;45349;48.692;8.186;2023-03-21T00:40:21;98918.41;;;7.57;99.49
59531;BME280;45349;48.692;8.186;2023-03-21T00:42:47;98904.25;;;7.49;99.71
59531;BME280;45349;48.692;8.186;2023-03-21T00:45:14;98906.16;;;7.47;100.00
59531;BME280;45349;48.692;8.186;2023-03-21T00:47:41;98899.84;;;7.40;100.00
59531;BME280;45349;48.692;8.186;2023-03-21T00:50:09;98894.53;;;7.30;100.00
59531;BME280;45349;48.692;8.186;2023-03-21T00:52:36;98896.94;;;7.22;100.00
59531;BME280;45349;48.692;8.186;2023-03-21T00:55:03;98887.88;;;7.16;100.00
59531;BME280;45349;48.692;8.186;2023-03-21T00:57:31;98889.31;;;7.09;100.00
59531;BME280;45349;48.692;8.186;2023-03-21T00:59:58;98883.28;;;6.97;100.00
59531;BME280;45349;48.692;8.186;2023-03-21T01:02:25;98886.84;;;6.96;100.00
59531;BME280;45349;48.692;8.186;2023-03-21T01:04:52;98884.84;;;6.88;100.00
59531;BME280;45349;48.692;8.186;2023-03-21T01:07:19;98887.84;;;6.84;100.00
59531;BME280;45349;48.692;8.186;2023-03-21T01:09:45;98879.34;;;6.82;100.00
59531;BME280;45349;48.692;8.186;2023-03-21T01:12:12;98876.75;;;6.82;100.00
59531;BME280;45349;48.692;8.186;2023-03-21T01:14:40;98876.03;;;6.79;100.00
59531;BME280;45349;48.692;8.186;2023-03-21T01:17:07;98877.56;;;6.71;100.00
59531;BME280;45349;48.692;8.186;2023-03-21T01:19:34;98870.25;;;6.64;100.00
59531;BME280;45349;48.692;8.186;2023-03-21T01:22:00;98885.34;;;6.59;100.00
59531;BME280;45349;48.692;8.186;2023-03-21T01:24:27;98877.34;;;6.51;100.00
59531;BME280;45349;48.692;8.186;2023-03-21T01:26:54;98883.84;;;6.45;100.00
59531;BME280;45349;48.692;8.186;2023-03-21T01:29:21;98873.47;;;6.23;100.00
59531;BME280;45349;48.692;8.186;2023-03-21T01:31:49;98875.31;;;6.09;100.00
59531;BME280;45349;48.692;8.186;2023-03-21T01:34:15;98875.06;;;6.01;100.00
59531;BME280;45349;48.692;8.186;2023-03-21T01:36:42;98880.59;;;5.96;100.00
59531;BME280;45349;48.692;8.186;2023-03-21T01:39:14;98880.34;;;5.88;100.00
59531;BME280;45349;48.692;8.186;2023-03-21T01:41:41;98874.78;;;5.81;100.00
59531;BME280;45349;48.692;8.186;2023-03-21T01:44:16;98875.56;;;5.70;100.00
59531;BME280;45349;48.692;8.186;2023-03-21T01:46:45;98864.94;;;5.62;100.00
59531;BME280;45349;48.692;8.186;2023-03-21T01:49:40;98866.25;;;5.56;100.00
59531;BME280;45349;48.692;8.186;2023-03-21T01:52:24;98862.94;;;5.54;100.00
59531;BME280;45349;48.692;8.186;2023-03-21T01:54:53;98855.94;;;5.43;100.00
59531;BME280;45349;48.692;8.186;2023-03-21T01:57:26;98857.31;;;5.36;100.00
59531;BME280;45349;48.692;8.186;2023-03-21T01:59:57;98857.00;;;5.41;100.00
59531;BME280;45349;48.692;8.186;2023-03-21T02:02:45;98855.22;;;5.30;100.00
59531;BME280;45349;48.692;8.186;2023-03-21T02:05:38;98850.34;;;5.25;100.00
59531;BME280;45349;48.692;8.186;2023-03-21T02:08:07;98842.00;;;5.22;100.00
59531;BME280;45349;48.692;8.186;2023-03-21T02:10:34;98844.81;;;5.19;100.00
59531;BME280;45349;48.692;8.186;2023-03-21T02:13:03;98846.56;;;5.18;100.00
59531;BME280;45349;48.692;8.186;2023-03-21T02:15:41;98849.50;;;5.13;100.00
59531;BME280;45349;48.692;8.186;2023-03-21T02:18:23;98842.88;;;5.09;100.00
59531;BME280;45349;48.692;8.186;2023-03-21T02:21:30;98840.59;;;5.05;100.00
59531;BME280;45349;48.692;8.186;2023-03-21T02:24:24;98833.19;;;5.00;100.00
59531;BME280;45349;48.692;8.186;2023-03-21T02:27:05;98832.78;;;4.93;100.00
59531;BME280;45349;48.692;8.186;2023-03-21T02:32:42;98838.41;;;4.87;100.00
59531;BME280;45349;48.692;8.186;2023-03-21T02:35:27;98833.34;;;4.85;100.00
59531;BME280;45349;48.692;8.186;2023-03-21T02:38:02;98835.72;;;4.88;100.00
59531;BME280;45349;48.692;8.186;2023-03-21T02:40:33;98824.75;;;4.85;100.00
59531;BME280;45349;48.692;8.186;2023-03-21T02:43:04;98827.47;;;4.83;100.00
59531;BME280;45349;48.692;8.186;2023-03-21T02:45:38;98825.91;;;4.81;100.00
59531;BME280;45349;48.692;8.186;2023-03-21T02:48:08;98822.50;;;4.80;100.00
59531;BME280;45349;48.692;8.186;2023-03-21T02:50:39;98817.97;;;4.71;100.00
59531;BME280;45349;48.692;8.186;2023-03-21T02:53:10;98816.75;;;4.64;100.00
59531;BME280;45349;48.692;8.186;2023-03-21T02:55:41;98820.50;;;4.60;100.00
59531;BME280;45349;48.692;8.186;2023-03-21T02:58:11;98814.91;;;4.66;100.00
59531;BME280;45349;48.692;8.186;2023-03-21T03:00:44;98822.16;;;4.61;100.00
59531;BME280;45349;48.692;8.186;2023-03-21T03:03:20;98815.44;;;4.58;100.00
59531;BME280;45349;48.692;8.186;2023-03-21T03:05:48;98806.34;;;4.52;100.00
59531;BME280;45349;48.692;8.186;2023-03-21T03:08:26;98804.09;;;4.48;100.00
59531;BME280;45349;48.692;8.186;2023-03-21T03:11:02;98808.94;;;4.52;100.00
59531;BME280;45349;48.692;8.186;2023-03-21T03:13:47;98807.28;;;4.51;100.00
59531;BME280;45349;48.692;8.186;2023-03-21T03:16:23;98809.78;;;4.53;100.00
59531;BME280;45349;48.692;8.186;2023-03-21T03:18:58;98800.97;;;4.55;100.00
59531;BME280;45349;48.692;8.186;2023-03-21T03:21:30;98795.78;;;4.55;100.00
59531;BME280;45349;48.692;8.186;2023-03-21T03:24:01;98795.78;;;4.55;100.00
59531;BME280;45349;48.692;8.186;2023-03-21T03:26:33;98784.72;;;4.53;100.00
59531;BME280;45349;48.692;8.186;2023-03-21T03:29:04;98785.66;;;4.52;100.00
59531;BME280;45349;48.692;8.186;2023-03-21T03:31:35;98787.09;;;4.56;100.00
59531;BME280;45349;48.692;8.186;2023-03-21T03:34:06;98784.22;;;4.48;100.00
59531;BME280;45349;48.692;8.186;2023-03-21T03:36:39;98785.78;;;4.51;100.00
59531;BME280;45349;48.692;8.186;2023-03-21T03:39:13;98794.28;;;4.40;100.00
59531;BME280;45349;48.692;8.186;2023-03-21T03:41:49;98790.75;;;4.41;100.00
59531;BME280;45349;48.692;8.186;2023-03-21T03:44:17;98792.97;;;4.34;100.00
59531;BME280;45349;48.692;8.186;2023-03-21T03:46:55;98793.97;;;4.32;100.00
59531;BME280;45349;48.692;8.186;2023-03-21T03:49:24;98788.56;;;4.23;100.00
59531;BME280;45349;48.692;8.186;2023-03-21T03:51:56;98790.88;;;4.26;100.00
59531;BME280;45349;48.692;8.186;2023-03-21T03:54:32;98788.81;;;4.32;100.00
59531;BME280;45349;48.692;8.186;2023-03-21T03:57:02;98795.13;;;4.40;100.00
59531;BME280;45349;48.692;8.186;2023-03-21T03:59:32;98787.56;;;4.37;100.00
59531;BME280;45349;48.692;8.186;2023-03-21T04:02:18;98787.88;;;4.33;100.00
59531;BME280;45349;48.692;8.186;2023-03-21T04:04:46;98789.53;;;4.34;100.00
59531;BME280;45349;48.692;8.186;2023-03-21T04:07:18;98792.16;;;4.21;100.00
59531;BME280;45349;48.692;8.186;2023-03-21T04:09:47;98793.41;;;4.15;100.00
59531;BME280;45349;48.692;8.186;2023-03-21T04:12:17;98789.03;;;4.28;100.00
59531;BME280;45349;48.692;8.186;2023-03-21T04:15:16;98791.22;;;4.22;100.00
59531;BME280;45349;48.692;8.186;2023-03-21T04:17:49;98790.63;;;4.18;100.00
59531;BME280;45349;48.692;8.186;2023-03-21T04:20:16;98790.72;;;4.17;100.00
59531;BME280;45349;48.692;8.186;2023-03-21T04:22:43;98794.94;;;4.18;100.00
59531;BME280;45349;48.692;8.186;2023-03-21T04:25:11;98791.03;;;4.12;100.00
59531;BME280;45349;48.692;8.186;2023-03-21T04:27:38;98793.72;;;4.10;100.00
59531;BME280;45349;48.692;8.186;2023-03-21T04:33:10;98791.94;;;4.24;100.00
59531;BME280;45349;48.692;8.186;2023-03-21T04:35:39;98793.91;;;4.33;100.00
59531;BME280;45349;48.692;8.186;2023-03-21T04:38:07;98789.66;;;4.32;100.00
59531;BME280;45349;48.692;8.186;2023-03-21T04:40:35;98786.34;;;4.30;100.00
59531;BME280;45349;48.692;8.186;2023-03-21T04:43:02;98787.16;;;4.31;100.00
59531;BME280;45349;48.692;8.186;2023-03-21T04:45:29;98782.50;;;4.36;100.00
59531;BME280;45349;48.692;8.186;2023-03-21T04:47:55;98785.22;;;4.34;100.00
59531;BME280;45349;48.692;8.186;2023-03-21T04:50:24;98778.69;;;4.28;100.00
59531;BME280;45349;48.692;8.186;2023-03-21T04:52:50;98790.16;;;4.24;100.00
59531;BME280;45349;48.692;8.186;2023-03-21T04:55:18;98785.13;;;4.23;100.00
59531;BME280;45349;48.692;8.186;2023-03-21T04:57:49;98778.31;;;4.22;100.00
59531;BME280;45349;48.692;8.186;2023-03-21T05:00:16;98782.75;;;4.20;100.00
59531;BME280;45349;48.692;8.186;2023-03-21T05:02:43;98776.28;;;4.14;100.00
59531;BME280;45349;48.692;8.186;2023-03-21T05:05:10;98774.81;;;4.10;100.00
59531;BME280;45349;48.692;8.186;2023-03-21T05:07:38;98770.25;;;4.13;100.00
59531;BME280;45349;48.692;8.186;2023-03-21T05:10:08;98772.75;;;4.15;100.00
59531;BME280;45349;48.692;8.186;2023-03-21T05:12:38;98772.25;;;4.10;100.00
59531;BME280;45349;48.692;8.186;2023-03-21T05:15:10;98768.94;;;4.08;100.00
59531;BME280;45349;48.692;8.186;2023-03-21T05:17:36;98770.81;;;4.06;100.00
59531;BME280;45349;48.692;8.186;2023-03-21T05:20:04;98774.31;;;4.05;100.00
59531;BME280;45349;48.692;8.186;2023-03-21T05:22:34;98773.47;;;4.04;100.00
59531;BME280;45349;48.692;8.186;2023-03-21T05:25:08;98775.75;;;3.96;100.00
59531;BME280;45349;48.692;8.186;2023-03-21T05:27:55;98771.72;;;3.92;100.00
59531;BME280;45349;48.692;8.186;2023-03-21T05:30:28;98765.22;;;3.99;100.00
59531;BME280;45349;48.692;8.186;2023-03-21T05:33:01;98772.88;;;4.01;100.00
59531;BME280;45349;48.692;8.186;2023-03-21T05:35:30;98766.88;;;4.00;100.00
59531;BME280;45349;48.692;8.186;2023-03-21T05:38:03;98769.56;;;3.98;100.00
59531;BME280;45349;48.692;8.186;2023-03-21T05:40:37;98774.72;;;3.98;100.00
59531;BME280;45349;48.692;8.186;2023-03-21T05:43:06;98768.31;;;4.04;100.00
59531;BME280;45349;48.692;8.186;2023-03-21T05:45:36;98769.16;;;4.05;100.00
59531;BME280;45349;48.692;8.186;2023-03-21T05:48:02;98770.69;;;4.07;100.00
59531;BME280;45349;48.692;8.186;2023-03-21T05:50:34;98776.97;;;4.16;100.00
59531;BME280;45349;48.692;8.186;2023-03-21T05:53:09;98770.88;;;4.17;100.00
59531;BME280;45349;48.692;8.186;2023-03-21T05:55:36;98769.19;;;4.29;100.00
59531;BME280;45349;48.692;8.186;2023-03-21T05:58:06;98764.63;;;4.33;100.00
59531;BME280;45349;48.692;8.186;2023-03-21T06:00:33;98773.59;;;4.40;100.00
59531;BME280;45349;48.692;8.186;2023-03-21T06:03:20;98775.97;;;4.43;100.00
59531;BME280;45349;48.692;8.186;2023-03-21T06:06:06;98777.41;;;4.47;100.00
59531;BME280;45349;48.692;8.186;2023-03-21T06:08:37;98780.63;;;4.51;100.00
59531;BME280;45349;48.692;8.186;2023-03-21T06:11:05;98785.44;;;4.55;100.00
59531;BME280;45349;48.692;8.186;2023-03-21T06:13:34;98783.50;;;4.59;100.00
59531;BME280;45349;48.692;8.186;2023-03-21T06:16:01;98785.84;;;4.62;100.00
59531;BME280;45349;48.692;8.186;2023-03-21T06:18:34;98786.13;;;4.70;100.00
59531;BME280;45349;48.692;8.186;2023-03-21T06:21:19;98794.28;;;4.77;100.00
59531;BME280;45349;48.692;8.186;2023-03-21T06:23:47;98794.22;;;4.90;100.00
59531;BME280;45349;48.692;8.186;2023-03-21T06:26:16;98786.63;;;5.00;100.00
59531;BME280;45349;48.692;8.186;2023-03-21T06:28:44;98789.13;;;5.13;100.00
59531;BME280;45349;48.692;8.186;2023-03-21T06:31:11;98783.19;;;5.24;100.00
59531;BME280;45349;48.692;8.186;2023-03-21T06:33:39;98788.03;;;5.40;100.00
59531;BME280;45349;48.692;8.186;2023-03-21T06:36:06;98787.84;;;5.54;100.00
59531;BME280;45349;48.692;8.186;2023-03-21T06:38:33;98779.75;;;5.70;100.00
59531;BME280;45349;48.692;8.186;2023-03-21T06:41:02;98780.22;;;5.87;100.00
59531;BME280;45349;48.692;8.186;2023-03-21T06:43:33;98779.81;;;6.04;100.00
59531;BME280;45349;48.692;8.186;2023-03-21T06:46:02;98785.31;;;6.23;100.00
59531;BME280;45349;48.692;8.186;2023-03-21T06:48:30;98777.88;;;6.41;100.00
59531;BME280;45349;48.692;8.186;2023-03-21T06:50:59;98778.44;;;6.56;100.00
59531;BME280;45349;48.692;8.186;2023-03-21T06:53:28;98773.94;;;6.69;100.00
59531;BME280;45349;48.692;8.186;2023-03-21T06:56:14;98776.00;;;6.87;100.00
59531;BME280;45349;48.692;8.186;2023-03-21T06:58:43;98768.84;;;7.00;100.00
59531;BME280;45349;48.692;8.186;2023-03-21T07:01:19;98769.41;;;7.15;100.00
59531;BME280;45349;48.692;8.186;2023-03-21T07:04:00;98771.44;;;7.33;100.00
59531;BME280;45349;48.692;8.186;2023-03-21T07:06:32;98778.34;;;7.44;99.97
59531;BME280;45349;48.692;8.186;2023-03-21T07:08:59;98764.59;;;7.53;100.00
59531;BME280;45349;48.692;8.186;2023-03-21T07:11:31;98771.09;;;7.68;100.00
59531;BME280;45349;48.692;8.186;2023-03-21T07:13:59;98768.16;;;7.83;100.00
59531;BME280;45349;48.692;8.186;2023-03-21T07:16:26;98768.47;;;8.00;98.73
59531;BME280;45349;48.692;8.186;2023-03-21T07:18:54;98771.50;;;8.05;94.69
59531;BME280;45349;48.692;8.186;2023-03-21T07:21:21;98772.00;;;8.20;95.23
59531;BME280;45349;48.692;8.186;2023-03-21T07:23:49;98766.53;;;8.33;93.72
59531;BME280;45349;48.692;8.186;2023-03-21T07:26:19;98766.59;;;8.42;93.36
59531;BME280;45349;48.692;8.186;2023-03-21T07:28:45;98758.69;;;8.54;93.91
59531;BME280;45349;48.692;8.186;2023-03-21T07:31:14;98762.25;;;8.63;91.65
59531;BME280;45349;48.692;8.186;2023-03-21T07:33:42;98751.84;;;8.73;90.62
59531;BME280;45349;48.692;8.186;2023-03-21T07:36:13;98756.25;;;8.82;90.39
59531;BME280;45349;48.692;8.186;2023-03-21T07:38:40;98758.19;;;8.99;90.64
59531;BME280;45349;48.692;8.186;2023-03-21T07:41:08;98760.09;;;9.17;90.74
59531;BME280;45349;48.692;8.186;2023-03-21T07:43:35;98753.78;;;9.29;88.98
59531;BME280;45349;48.692;8.186;2023-03-21T07:46:02;98756.22;;;9.41;89.05
59531;BME280;45349;48.692;8.186;2023-03-21T07:48:29;98759.19;;;9.56;88.30
59531;BME280;45349;48.692;8.186;2023-03-21T07:50:56;98760.28;;;9.63;86.05
59531;BME280;45349;48.692;8.186;2023-03-21T07:53:23;98762.31;;;9.69;85.85
59531;BME280;45349;48.692;8.186;2023-03-21T07:55:49;98755.84;;;9.73;85.52
59531;BME280;45349;48.692;8.186;2023-03-21T07:58:17;98765.53;;;9.91;85.11
59531;BME280;45349;48.692;8.186;2023-03-21T08:00:44;98766.97;;;10.13;84.29
59531;BME280;45349;48.692;8.186;2023-03-21T08:03:10;98771.69;;;10.28;84.06
59531;BME280;45349;48.692;8.186;2023-03-21T08:05:37;98771.38;;;10.41;83.24
59531;BME280;45349;48.692;8.186;2023-03-21T08:08:04;98773.66;;;10.54;83.21
59531;BME280;45349;48.692;8.186;2023-03-21T08:10:32;98782.22;;;10.64;81.95
59531;BME280;45349;48.692;8.186;2023-03-21T08:12:59;98785.88;;;10.53;78.54
59531;BME280;45349;48.692;8.186;2023-03-21T08:15:27;98790.06;;;10.36;78.35
59531;BME280;45349;48.692;8.186;2023-03-21T08:17:54;98792.06;;;10.14;78.29
59531;BME280;45349;48.692;8.186;2023-03-21T08:20:23;98794.47;;;9.98;80.75
59531;BME280;45349;48.692;8.186;2023-03-21T08:22:50;98789.75;;;10.11;81.30
59531;BME280;45349;48.692;8.186;2023-03-21T08:25:18;98788.56;;;9.96;81.39
59531;BME280;45349;48.692;8.186;2023-03-21T08:27:47;98789.06;;;10.09;83.12
59531;BME280;45349;48.692;8.186;2023-03-21T08:30:15;98788.63;;;10.14;81.02
59531;BME280;45349;48.692;8.186;2023-03-21T08:32:44;98790.38;;;10.23;78.95
59531;BME280;45349;48.692;8.186;2023-03-21T08:35:12;98793.91;;;10.32;76.69
59531;BME280;45349;48.692;8.186;2023-03-21T08:37:40;98792.75;;;10.16;78.24
59531;BME280;45349;48.692;8.186;2023-03-21T08:40:12;98795.75;;;10.22;78.08
59531;BME280;45349;48.692;8.186;2023-03-21T08:42:40;98789.09;;;10.37;77.82
59531;BME280;45349;48.692;8.186;2023-03-21T08:45:09;98783.78;;;10.29;76.22
59531;BME280;45349;48.692;8.186;2023-03-21T08:47:35;98797.34;;;10.32;76.36
59531;BME280;45349;48.692;8.186;2023-03-21T08:50:05;98798.31;;;10.41;75.68
59531;BME280;45349;48.692;8.186;2023-03-21T08:52:32;98793.09;;;10.41;77.22
59531;BME280;45349;48.692;8.186;2023-03-21T08:54:59;98791.81;;;10.45;76.30
59531;BME280;45349;48.692;8.186;2023-03-21T08:57:27;98791.53;;;10.39;78.54
59531;BME280;45349;48.692;8.186;2023-03-21T08:59:54;98792.13;;;10.42;77.45
59531;BME280;45349;48.692;8.186;2023-03-21T09:02:20;98792.41;;;10.29;76.48
59531;BME280;45349;48.692;8.186;2023-03-21T09:04:47;98791.53;;;10.48;78.25
59531;BME280;45349;48.692;8.186;2023-03-21T09:07:15;98789.16;;;10.55;77.70
59531;BME280;45349;48.692;8.186;2023-03-21T09:09:42;98791.38;;;10.68;77.96
59531;BME280;45349;48.692;8.186;2023-03-21T09:12:09;98790.59;;;10.68;76.74
59531;BME280;45349;48.692;8.186;2023-03-21T09:14:35;98793.94;;;10.96;74.82
59531;BME280;45349;48.692;8.186;2023-03-21T09:17:02;98787.53;;;11.08;74.42
59531;BME280;45349;48.692;8.186;2023-03-21T09:19:29;98791.66;;;11.11;73.96
59531;BME280;45349;48.692;8.186;2023-03-21T09:21:56;98798.06;;;10.99;74.81
59531;BME280;45349;48.692;8.186;2023-03-21T09:24:24;98797.16;;;11.26;75.39
59531;BME280;45349;48.692;8.186;2023-03-21T09:26:50;98792.78;;;11.53;73.90
59531;BME280;45349;48.692;8.186;2023-03-21T09:29:17;98794.38;;;11.72;72.77
59531;BME280;45349;48.692;8.186;2023-03-21T09:31:45;98797.28;;;11.69;74.35
59531;BME280;45349;48.692;8.186;2023-03-21T09:34:12;98801.03;;;11.93;72.36
59531;BME280;45349;48.692;8.186;2023-03-21T09:36:40;98797.69;;;12.09;72.96
59531;BME280;45349;48.692;8.186;2023-03-21T09:39:08;98802.41;;;12.40;70.68
59531;BME280;45349;48.692;8.186;2023-03-21T09:41:56;98798.16;;;12.39;67.30
59531;BME280;45349;48.692;8.186;2023-03-21T09:44:36;98795.88;;;12.44;67.07
59531;BME280;45349;48.692;8.186;2023-03-21T09:47:10;98804.16;;;12.31;66.98
59531;BME280;45349;48.692;8.186;2023-03-21T09:49:43;98798.28;;;12.29;67.18
59531;BME280;45349;48.692;8.186;2023-03-21T09:52:18;98798.63;;;12.34;67.43
59531;BME280;45349;48.692;8.186;2023-03-21T09:54:46;98802.28;;;12.50;64.87
59531;BME280;45349;48.692;8.186;2023-03-21T09:57:23;98807.66;;;12.40;64.78
59531;BME280;45349;48.692;8.186;2023-03-21T09:59:53;98810.72;;;12.35;65.71
59531;BME280;45349;48.692;8.186;2023-03-21T10:02:34;98816.31;;;12.40;66.57
59531;BME280;45349;48.692;8.186;2023-03-21T10:05:10;98805.44;;;12.78;64.88
59531;BME280;45349;48.692;8.186;2023-03-21T10:07:40;98801.31;;;12.59;66.17
59531;BME280;45349;48.692;8.186;2023-03-21T10:10:14;98804.13;;;12.58;66.26
59531;BME280;45349;48.692;8.186;2023-03-21T10:12:45;98794.00;;;12.63;66.80
59531;BME280;45349;48.692;8.186;2023-03-21T10:15:18;98790.88;;;12.67;66.95
59531;BME280;45349;48.692;8.186;2023-03-21T10:17:49;98787.47;;;12.83;66.61
59531;BME280;45349;48.692;8.186;2023-03-21T10:20:20;98785.84;;;12.91;66.33
59531;BME280;45349;48.692;8.186;2023-03-21T10:22:48;98786.97;;;12.80;66.80
59531;BME280;45349;48.692;8.186;2023-03-21T10:25:18;98782.09;;;12.93;67.32
59531;BME280;45349;48.692;8.186;2023-03-21T10:27:47;98780.28;;;13.35;67.30
59531;BME280;45349;48.692;8.186;2023-03-21T10:30:31;98776.38;;;13.48;64.09
59531;BME280;45349;48.692;8.186;2023-03-21T10:33:02;98775.03;;;13.68;63.71
59531;BME280;45349;48.692;8.186;2023-03-21T10:35:31;98768.31;;;13.41;63.91
59531;BME280;45349;48.692;8.186;2023-03-21T10:38:01;98770.13;;;13.57;62.79
59531;BME280;45349;48.692;8.186;2023-03-21T10:40:28;98760.78;;;13.46;64.95
59531;BME280;45349;48.692;8.186;2023-03-21T10:43:15;98750.97;;;13.48;64.68
59531;BME280;45349;48.692;8.186;2023-03-21T10:45:44;98749.78;;;13.76;64.26
59531;BME280;45349;48.692;8.186;2023-03-21T10:48:11;98752.63;;;13.97;65.15
59531;BME280;45349;48.692;8.186;2023-03-21T10:50:37;98750.78;;;14.14;62.55
59531;BME280;45349;48.692;8.186;2023-03-21T10:53:15;98746.66;;;14.12;63.43
59531;BME280;45349;48.692;8.186;2023-03-21T10:55:47;98749.97;;;14.06;64.29
59531;BME280;45349;48.692;8.186;2023-03-21T10:58:18;98741.91;;;13.67;65.32
59531;BME280;45349;48.692;8.186;2023-03-21T11:00:53;98741.66;;;13.94;63.04
59531;BME280;45349;48.692;8.186;2023-03-21T11:03:24;98737.47;;;13.76;65.18
59531;BME280;45349;48.692;8.186;2023-03-21T11:05:55;98728.06;;;13.90;62.92
59531;BME280;45349;48.692;8.186;2023-03-21T11:08:24;98727.25;;;13.90;63.18
59531;BME280;45349;48.692;8.186;2023-03-21T11:10:59;98735.72;;;14.08;62.32
59531;BME280;45349;48.692;8.186;2023-03-21T11:13:33;98729.63;;;14.08;62.83
59531;BME280;45349;48.692;8.186;2023-03-21T11:16:05;98731.06;;;14.50;62.21
59531;BME280;45349;48.692;8.186;2023-03-21T11:18:38;98733.84;;;14.49;61.48
59531;BME280;45349;48.692;8.186;2023-03-21T11:21:07;98725.66;;;14.43;60.83
59531;BME280;45349;48.692;8.186;2023-03-21T11:23:37;98727.66;;;14.73;60.92
59531;BME280;45349;48.692;8.186;2023-03-21T11:26:10;98723.41;;;14.72;60.20
59531;BME280;45349;48.692;8.186;2023-03-21T11:28:40;98726.81;;;14.96;60.11
59531;BME280;45349;48.692;8.186;2023-03-21T11:31:09;98722.53;;;14.95;59.54
59531;BME280;45349;48.692;8.186;2023-03-21T11:33:37;98717.63;;;15.15;59.67
59531;BME280;45349;48.692;8.186;2023-03-21T11:36:22;98717.13;;;14.96;58.99
59531;BME280;45349;48.692;8.186;2023-03-21T11:38:52;98713.88;;;14.71;60.13
59531;BME280;45349;48.692;8.186;2023-03-21T11:41:22;98705.16;;;14.70;59.75
59531;BME280;45349;48.692;8.186;2023-03-21T11:43:52;98703.38;;;14.71;59.66
59531;BME280;45349;48.692;8.186;2023-03-21T11:46:22;98704.91;;;15.03;58.40
59531;BME280;45349;48.692;8.186;2023-03-21T11:48:49;98693.34;;;14.89;58.90
59531;BME280;45349;48.692;8.186;2023-03-21T11:51:21;98689.06;;;15.12;56.51
59531;BME280;45349;48.692;8.186;2023-03-21T11:53:59;98693.75;;;15.01;57.50
59531;BME280;45349;48.692;8.186;2023-03-21T11:56:33;98685.59;;;15.11;56.65
59531;BME280;45349;48.692;8.186;2023-03-21T11:59:17;98686.81;;;15.24;54.63
59531;BME280;45349;48.692;8.186;2023-03-21T12:02:06;98691.84;;;14.95;57.09
59531;BME280;45349;48.692;8.186;2023-03-21T12:04:39;98688.72;;;15.30;55.25
59531;BME280;45349;48.692;8.186;2023-03-21T12:07:20;98679.84;;;15.61;56.98
59531;BME280;45349;48.692;8.186;2023-03-21T12:09:55;98680.66;;;15.61;55.88
59531;BME280;45349;48.692;8.186;2023-03-21T12:12:32;98676.84;;;15.79;53.75
59531;BME280;45349;48.692;8.186;2023-03-21T12:15:09;98676.66;;;15.81;53.44
59531;BME280;45349;48.692;8.186;2023-03-21T12:17:42;98673.22;;;15.35;54.01
59531;BME280;45349;48.692;8.186;2023-03-21T12:20:22;98669.31;;;15.61;54.15
59531;BME280;45349;48.692;8.186;2023-03-21T12:22:58;98670.78;;;15.78;53.65
59531;BME280;45349;48.692;8.186;2023-03-21T12:25:31;98672.19;;;16.11;52.58
59531;BME280;45349;48.692;8.186;2023-03-21T12:28:07;98660.94;;;16.02;52.77
59531;BME280;45349;48.692;8.186;2023-03-21T12:30:47;98655.97;;;15.77;52.38
59531;BME280;45349;48.692;8.186;2023-03-21T12:33:27;98650.72;;;15.92;52.54
59531;BME280;45349;48.692;8.186;2023-03-21T12:36:19;98646.91;;;15.35;53.03
59531;BME280;45349;48.692;8.186;2023-03-21T12:38:57;98651.41;;;15.86;53.01
59531;BME280;45349;48.692;8.186;2023-03-21T12:41:33;98654.78;;;15.95;52.92
59531;BME280;45349;48.692;8.186;2023-03-21T12:44:02;98649.56;;;15.35;53.50
59531;BME280;45349;48.692;8.186;2023-03-21T12:46:36;98653.72;;;15.74;52.30
59531;BME280;45349;48.692;8.186;2023-03-21T12:49:09;98655.72;;;15.72;53.22
59531;BME280;45349;48.692;8.186;2023-03-21T12:51:42;98643.59;;;16.08;51.58
59531;BME280;45349;48.692;8.186;2023-03-21T12:54:16;98642.84;;;16.14;50.91
59531;BME280;45349;48.692;8.186;2023-03-21T12:56:49;98643.25;;;16.33;49.99
59531;BME280;45349;48.692;8.186;2023-03-21T12:59:22;98639.25;;;16.22;50.35
59531;BME280;45349;48.692;8.186;2023-03-21T13:01:55;98632.38;;;16.21;50.94
59531;BME280;45349;48.692;8.186;2023-03-21T13:04:41;98632.25;;;16.29;51.19
59531;BME280;45349;48.692;8.186;2023-03-21T13:07:12;98632.28;;;16.58;50.18
59531;BME280;45349;48.692;8.186;2023-03-21T13:09:42;98627.47;;;16.40;50.08
59531;BME280;45349;48.692;8.186;2023-03-21T13:12:23;98624.66;;;16.19;50.56
59531;BME280;45349;48.692;8.186;2023-03-21T13:15:01;98631.50;;;16.57;47.79
59531;BME280;45349;48.692;8.186;2023-03-21T13:17:37;98630.41;;;16.51;49.39
59531;BME280;45349;48.692;8.186;2023-03-21T13:20:14;98620.19;;;16.20;51.23
59531;BME280;45349;48.692;8.186;2023-03-21T13:22:45;98621.38;;;16.61;48.26
59531;BME280;45349;48.692;8.186;2023-03-21T13:25:17;98624.09;;;16.67;49.18
59531;BME280;45349;48.692;8.186;2023-03-21T13:27:50;98620.25;;;16.48;49.38
59531;BME280;45349;48.692;8.186;2023-03-21T13:30:19;98624.13;;;16.74;48.35